sensor_id;sensor_type;location;lat;lon;timestamp;P1;durP1;ratioP1;P2;durP2;ratioP2
80293;SDS011;69594;43.516;1.498;2023-08-01T00:00:35;7.37;;;2.67;;
80293;SDS011;69594;43.516;1.498;2023-08-01T00:03:00;3.33;;;2.27;;
80293;SDS011;69594;43.516;1.498;2023-08-01T00:05:25;5.72;;;2.20;;
80293;SDS011;69594;43.516;1.498;2023-08-01T00:07:51;6.47;;;2.50;;
80293;SDS011;69594;43.516;1.498;2023-08-01T00:10:17;4.50;;;2.27;;
80293;SDS011;69594;43.516;1.498;2023-08-01T00:12:42;5.10;;;1.93;;
80293;SDS011;69594;43.516;1.498;2023-08-01T00:15:07;5.13;;;2.37;;
80293;SDS011;69594;43.516;1.498;2023-08-01T00:17:33;4.33;;;2.00;;
80293;SDS011;69594;43.516;1.498;2023-08-01T00:19:59;5.95;;;2.53;;
80293;SDS011;69594;43.516;1.498;2023-08-01T00:22:25;4.37;;;2.40;;
80293;SDS011;69594;43.516;1.498;2023-08-01T00:24:50;4.93;;;1.83;;
80293;SDS011;69594;43.516;1.498;2023-08-01T00:27:15;4.80;;;2.40;;
80293;SDS011;69594;43.516;1.498;2023-08-01T00:29:41;5.20;;;2.57;;
80293;SDS011;69594;43.516;1.498;2023-08-01T00:32:06;3.97;;;2.00;;
80293;SDS011;69594;43.516;1.498;2023-08-01T00:34:31;6.53;;;2.73;;
80293;SDS011;69594;43.516;1.498;2023-08-01T00:36:57;5.37;;;2.73;;
80293;SDS011;69594;43.516;1.498;2023-08-01T00:39:22;4.33;;;2.67;;
80293;SDS011;69594;43.516;1.498;2023-08-01T00:41:47;7.00;;;2.97;;
80293;SDS011;69594;43.516;1.498;2023-08-01T00:44:13;6.10;;;2.87;;
80293;SDS011;69594;43.516;1.498;2023-08-01T00:46:38;5.73;;;2.70;;
80293;SDS011;69594;43.516;1.498;2023-08-01T00:49:03;6.10;;;2.83;;
80293;SDS011;69594;43.516;1.498;2023-08-01T00:51:29;5.55;;;2.50;;
80293;SDS011;69594;43.516;1.498;2023-08-01T00:53:55;5.23;;;2.60;;
80293;SDS011;69594;43.516;1.498;2023-08-01T00:56:20;4.30;;;2.43;;
80293;SDS011;69594;43.516;1.498;2023-08-01T00:58:46;5.57;;;2.53;;
80293;SDS011;69594;43.516;1.498;2023-08-01T01:01:11;5.23;;;2.53;;
80293;SDS011;69594;43.516;1.498;2023-08-01T01:03:36;5.20;;;2.47;;
80293;SDS011;69594;43.516;1.498;2023-08-01T01:06:47;6.10;;;2.73;;
80293;SDS011;69594;43.516;1.498;2023-08-01T01:08:47;5.10;;;2.92;;
80293;SDS011;69594;43.516;1.498;2023-08-01T01:11:12;3.37;;;2.27;;
80293;SDS011;69594;43.516;1.498;2023-08-01T01:13:38;4.77;;;2.60;;
80293;SDS011;69594;43.516;1.498;2023-08-01T01:16:03;3.23;;;2.10;;
80293;SDS011;69594;43.516;1.498;2023-08-01T01:18:28;6.80;;;3.17;;
80293;SDS011;69594;43.516;1.498;2023-08-01T01:20:54;6.10;;;2.90;;
80293;SDS011;69594;43.516;1.498;2023-08-01T01:23:19;6.23;;;3.17;;
80293;SDS011;69594;43.516;1.498;2023-08-01T01:25:46;5.75;;;2.85;;
80293;SDS011;69594;43.516;1.498;2023-08-01T01:28:12;6.65;;;3.22;;
80293;SDS011;69594;43.516;1.498;2023-08-01T01:30:38;8.03;;;3.30;;
80293;SDS011;69594;43.516;1.498;2023-08-01T01:33:03;6.03;;;2.93;;
80293;SDS011;69594;43.516;1.498;2023-08-01T01:35:29;7.93;;;3.20;;
80293;SDS011;69594;43.516;1.498;2023-08-01T01:37:54;7.17;;;3.50;;
80293;SDS011;69594;43.516;1.498;2023-08-01T01:40:20;4.77;;;3.37;;
80293;SDS011;69594;43.516;1.498;2023-08-01T01:42:45;5.45;;;3.45;;
80293;SDS011;69594;43.516;1.498;2023-08-01T01:45:11;6.33;;;3.73;;
80293;SDS011;69594;43.516;1.498;2023-08-01T01:47:36;6.93;;;3.20;;
80293;SDS011;69594;43.516;1.498;2023-08-01T01:50:01;7.93;;;3.40;;
80293;SDS011;69594;43.516;1.498;2023-08-01T01:52:26;5.87;;;3.23;;
80293;SDS011;69594;43.516;1.498;2023-08-01T01:54:52;7.47;;;3.53;;
80293;SDS011;69594;43.516;1.498;2023-08-01T01:57:17;6.60;;;3.17;;
80293;SDS011;69594;43.516;1.498;2023-08-01T01:59:42;6.83;;;3.20;;
80293;SDS011;69594;43.516;1.498;2023-08-01T02:02:07;4.90;;;3.10;;
80293;SDS011;69594;43.516;1.498;2023-08-01T02:04:33;6.07;;;3.13;;
80293;SDS011;69594;43.516;1.498;2023-08-01T02:06:58;6.60;;;3.20;;
80293;SDS011;69594;43.516;1.498;2023-08-01T02:09:23;6.97;;;3.43;;
80293;SDS011;69594;43.516;1.498;2023-08-01T02:11:49;5.68;;;3.22;;
80293;SDS011;69594;43.516;1.498;2023-08-01T02:14:14;5.80;;;3.27;;
80293;SDS011;69594;43.516;1.498;2023-08-01T02:16:39;6.33;;;3.50;;
80293;SDS011;69594;43.516;1.498;2023-08-01T02:19:04;6.87;;;3.53;;
80293;SDS011;69594;43.516;1.498;2023-08-01T02:21:30;7.20;;;3.70;;
80293;SDS011;69594;43.516;1.498;2023-08-01T02:23:55;6.03;;;3.23;;
80293;SDS011;69594;43.516;1.498;2023-08-01T02:26:20;6.43;;;3.30;;
80293;SDS011;69594;43.516;1.498;2023-08-01T02:28:48;5.60;;;3.45;;
80293;SDS011;69594;43.516;1.498;2023-08-01T02:31:13;5.77;;;3.10;;
80293;SDS011;69594;43.516;1.498;2023-08-01T02:33:38;6.97;;;3.37;;
80293;SDS011;69594;43.516;1.498;2023-08-01T02:36:03;6.53;;;3.27;;
80293;SDS011;69594;43.516;1.498;2023-08-01T02:38:29;5.47;;;3.00;;
80293;SDS011;69594;43.516;1.498;2023-08-01T02:40:54;5.00;;;3.10;;
80293;SDS011;69594;43.516;1.498;2023-08-01T02:43:19;5.40;;;3.20;;
80293;SDS011;69594;43.516;1.498;2023-08-01T02:45:45;7.10;;;3.47;;
80293;SDS011;69594;43.516;1.498;2023-08-01T02:48:10;6.38;;;3.50;;
80293;SDS011;69594;43.516;1.498;2023-08-01T02:50:36;5.00;;;3.07;;
80293;SDS011;69594;43.516;1.498;2023-08-01T02:53:01;7.47;;;3.87;;
80293;SDS011;69594;43.516;1.498;2023-08-01T02:55:26;6.00;;;3.43;;
80293;SDS011;69594;43.516;1.498;2023-08-01T02:57:51;6.67;;;3.50;;
80293;SDS011;69594;43.516;1.498;2023-08-01T03:00:17;6.13;;;3.53;;
80293;SDS011;69594;43.516;1.498;2023-08-01T03:02:42;5.83;;;3.83;;
80293;SDS011;69594;43.516;1.498;2023-08-01T03:05:08;4.10;;;3.08;;
80293;SDS011;69594;43.516;1.498;2023-08-01T03:07:33;7.20;;;3.73;;
80293;SDS011;69594;43.516;1.498;2023-08-01T03:09:58;7.13;;;3.73;;
80293;SDS011;69594;43.516;1.498;2023-08-01T03:12:24;6.17;;;3.20;;
80293;SDS011;69594;43.516;1.498;2023-08-01T03:14:49;6.57;;;3.63;;
80293;SDS011;69594;43.516;1.498;2023-08-01T03:17:14;5.93;;;3.93;;
80293;SDS011;69594;43.516;1.498;2023-08-01T03:19:39;6.10;;;3.77;;
80293;SDS011;69594;43.516;1.498;2023-08-01T03:22:05;5.47;;;3.53;;
80293;SDS011;69594;43.516;1.498;2023-08-01T03:24:30;6.17;;;4.20;;
80293;SDS011;69594;43.516;1.498;2023-08-01T03:26:55;5.93;;;3.80;;
80293;SDS011;69594;43.516;1.498;2023-08-01T03:29:21;8.33;;;3.57;;
80293;SDS011;69594;43.516;1.498;2023-08-01T03:31:46;7.10;;;4.20;;
80293;SDS011;69594;43.516;1.498;2023-08-01T03:34:11;7.83;;;4.30;;
80293;SDS011;69594;43.516;1.498;2023-08-01T03:36:37;8.75;;;4.03;;
80293;SDS011;69594;43.516;1.498;2023-08-01T03:39:03;5.67;;;4.00;;
80293;SDS011;69594;43.516;1.498;2023-08-01T03:41:29;7.57;;;4.32;;
80293;SDS011;69594;43.516;1.498;2023-08-01T03:43:54;7.40;;;4.20;;
80293;SDS011;69594;43.516;1.498;2023-08-01T03:46:19;5.73;;;4.07;;
80293;SDS011;69594;43.516;1.498;2023-08-01T03:48:45;6.73;;;3.93;;
80293;SDS011;69594;43.516;1.498;2023-08-01T03:51:10;6.47;;;4.10;;
80293;SDS011;69594;43.516;1.498;2023-08-01T03:53:36;9.40;;;4.30;;
80293;SDS011;69594;43.516;1.498;2023-08-01T03:56:01;9.00;;;4.33;;
80293;SDS011;69594;43.516;1.498;2023-08-01T03:58:27;5.37;;;3.53;;
80293;SDS011;69594;43.516;1.498;2023-08-01T04:00:52;5.40;;;4.23;;
80293;SDS011;69594;43.516;1.498;2023-08-01T04:03:18;7.43;;;3.95;;
80293;SDS011;69594;43.516;1.498;2023-08-01T04:05:43;6.93;;;4.07;;
80293;SDS011;69594;43.516;1.498;2023-08-01T04:08:08;5.67;;;3.87;;
80293;SDS011;69594;43.516;1.498;2023-08-01T04:10:34;6.37;;;3.80;;
80293;SDS011;69594;43.516;1.498;2023-08-01T04:12:59;7.23;;;3.70;;
80293;SDS011;69594;43.516;1.498;2023-08-01T04:15:24;5.83;;;3.87;;
80293;SDS011;69594;43.516;1.498;2023-08-01T04:17:49;7.23;;;4.03;;
80293;SDS011;69594;43.516;1.498;2023-08-01T04:20:15;8.10;;;4.00;;
80293;SDS011;69594;43.516;1.498;2023-08-01T04:22:40;8.07;;;4.20;;
80293;SDS011;69594;43.516;1.498;2023-08-01T04:25:05;7.63;;;3.97;;
80293;SDS011;69594;43.516;1.498;2023-08-01T04:27:31;5.93;;;3.70;;
80293;SDS011;69594;43.516;1.498;2023-08-01T04:29:56;10.47;;;4.27;;
80293;SDS011;69594;43.516;1.498;2023-08-01T04:32:21;8.07;;;3.80;;
80293;SDS011;69594;43.516;1.498;2023-08-01T04:34:46;6.47;;;3.70;;
80293;SDS011;69594;43.516;1.498;2023-08-01T04:37:12;8.63;;;3.47;;
80293;SDS011;69594;43.516;1.498;2023-08-01T04:39:37;6.13;;;3.97;;
80293;SDS011;69594;43.516;1.498;2023-08-01T04:42:02;7.70;;;4.03;;
80293;SDS011;69594;43.516;1.498;2023-08-01T04:44:28;8.65;;;4.03;;
80293;SDS011;69594;43.516;1.498;2023-08-01T04:46:54;6.70;;;3.50;;
80293;SDS011;69594;43.516;1.498;2023-08-01T04:49:20;7.25;;;3.72;;
80293;SDS011;69594;43.516;1.498;2023-08-01T04:51:45;10.30;;;4.00;;
80293;SDS011;69594;43.516;1.498;2023-08-01T04:54:10;6.30;;;3.27;;
80293;SDS011;69594;43.516;1.498;2023-08-01T04:56:35;8.60;;;4.00;;
80293;SDS011;69594;43.516;1.498;2023-08-01T04:59:01;6.97;;;3.23;;
80293;SDS011;69594;43.516;1.498;2023-08-01T05:01:27;6.55;;;3.97;;
80293;SDS011;69594;43.516;1.498;2023-08-01T05:03:52;8.23;;;4.23;;
80293;SDS011;69594;43.516;1.498;2023-08-01T05:06:17;6.90;;;3.67;;
80293;SDS011;69594;43.516;1.498;2023-08-01T05:08:42;6.33;;;3.67;;
80293;SDS011;69594;43.516;1.498;2023-08-01T05:11:08;9.00;;;4.43;;
80293;SDS011;69594;43.516;1.498;2023-08-01T05:13:33;10.70;;;4.40;;
80293;SDS011;69594;43.516;1.498;2023-08-01T05:15:58;7.07;;;3.57;;
80293;SDS011;69594;43.516;1.498;2023-08-01T05:18:24;5.03;;;4.00;;
80293;SDS011;69594;43.516;1.498;2023-08-01T05:20:49;9.57;;;4.63;;
80293;SDS011;69594;43.516;1.498;2023-08-01T05:23:14;10.10;;;5.03;;
80293;SDS011;69594;43.516;1.498;2023-08-01T05:25:39;8.13;;;4.43;;
80293;SDS011;69594;43.516;1.498;2023-08-01T05:28:04;7.47;;;3.83;;
80293;SDS011;69594;43.516;1.498;2023-08-01T05:30:30;9.43;;;4.03;;
80293;SDS011;69594;43.516;1.498;2023-08-01T05:32:55;8.23;;;4.40;;
80293;SDS011;69594;43.516;1.498;2023-08-01T05:35:21;6.53;;;4.10;;
80293;SDS011;69594;43.516;1.498;2023-08-01T05:37:46;6.30;;;4.40;;
80293;SDS011;69594;43.516;1.498;2023-08-01T05:40:12;7.57;;;4.23;;
80293;SDS011;69594;43.516;1.498;2023-08-01T05:42:37;7.80;;;4.40;;
80293;SDS011;69594;43.516;1.498;2023-08-01T05:45:02;6.77;;;4.43;;
80293;SDS011;69594;43.516;1.498;2023-08-01T05:47:29;8.07;;;4.20;;
80293;SDS011;69594;43.516;1.498;2023-08-01T05:49:54;8.60;;;4.00;;
80293;SDS011;69594;43.516;1.498;2023-08-01T05:52:19;6.50;;;4.00;;
80293;SDS011;69594;43.516;1.498;2023-08-01T05:54:44;6.50;;;3.97;;
80293;SDS011;69594;43.516;1.498;2023-08-01T05:57:10;9.10;;;4.30;;
80293;SDS011;69594;43.516;1.498;2023-08-01T05:59:35;11.77;;;4.53;;
80293;SDS011;69594;43.516;1.498;2023-08-01T06:02:00;7.67;;;3.87;;
80293;SDS011;69594;43.516;1.498;2023-08-01T06:04:25;9.57;;;4.23;;
80293;SDS011;69594;43.516;1.498;2023-08-01T06:06:51;6.80;;;4.10;;
80293;SDS011;69594;43.516;1.498;2023-08-01T06:09:16;7.10;;;3.80;;
80293;SDS011;69594;43.516;1.498;2023-08-01T06:11:42;6.77;;;3.60;;
80293;SDS011;69594;43.516;1.498;2023-08-01T06:14:07;7.73;;;3.67;;
80293;SDS011;69594;43.516;1.498;2023-08-01T06:16:32;7.10;;;3.60;;
80293;SDS011;69594;43.516;1.498;2023-08-01T06:18:58;7.37;;;3.50;;
80293;SDS011;69594;43.516;1.498;2023-08-01T06:21:23;8.20;;;3.57;;
80293;SDS011;69594;43.516;1.498;2023-08-01T06:23:48;6.73;;;3.30;;
80293;SDS011;69594;43.516;1.498;2023-08-01T06:26:14;7.70;;;3.60;;
80293;SDS011;69594;43.516;1.498;2023-08-01T06:28:40;6.10;;;3.20;;
80293;SDS011;69594;43.516;1.498;2023-08-01T06:31:05;8.83;;;3.67;;
80293;SDS011;69594;43.516;1.498;2023-08-01T06:33:31;6.80;;;3.47;;
80293;SDS011;69594;43.516;1.498;2023-08-01T06:35:56;6.37;;;3.00;;
80293;SDS011;69594;43.516;1.498;2023-08-01T06:38:21;6.27;;;3.23;;
80293;SDS011;69594;43.516;1.498;2023-08-01T06:40:46;7.18;;;3.15;;
80293;SDS011;69594;43.516;1.498;2023-08-01T06:43:12;6.50;;;3.33;;
80293;SDS011;69594;43.516;1.498;2023-08-01T06:45:37;5.77;;;3.03;;
80293;SDS011;69594;43.516;1.498;2023-08-01T06:48:02;5.80;;;3.13;;
80293;SDS011;69594;43.516;1.498;2023-08-01T06:50:27;5.87;;;3.13;;
80293;SDS011;69594;43.516;1.498;2023-08-01T06:52:52;6.93;;;3.50;;
80293;SDS011;69594;43.516;1.498;2023-08-01T06:55:18;5.93;;;3.13;;
80293;SDS011;69594;43.516;1.498;2023-08-01T06:57:43;6.43;;;3.00;;
80293;SDS011;69594;43.516;1.498;2023-08-01T07:00:08;5.40;;;3.07;;
80293;SDS011;69594;43.516;1.498;2023-08-01T07:02:34;5.27;;;2.57;;
80293;SDS011;69594;43.516;1.498;2023-08-01T07:04:59;6.00;;;2.83;;
80293;SDS011;69594;43.516;1.498;2023-08-01T07:07:24;6.00;;;3.03;;
80293;SDS011;69594;43.516;1.498;2023-08-01T07:09:50;6.00;;;2.70;;
80293;SDS011;69594;43.516;1.498;2023-08-01T07:12:15;6.93;;;2.83;;
80293;SDS011;69594;43.516;1.498;2023-08-01T07:14:40;8.70;;;3.00;;
80293;SDS011;69594;43.516;1.498;2023-08-01T07:17:06;6.07;;;2.67;;
80293;SDS011;69594;43.516;1.498;2023-08-01T07:19:31;7.07;;;3.10;;
80293;SDS011;69594;43.516;1.498;2023-08-01T07:21:56;7.00;;;3.30;;
80293;SDS011;69594;43.516;1.498;2023-08-01T07:24:21;5.23;;;2.90;;
80293;SDS011;69594;43.516;1.498;2023-08-01T07:26:47;5.90;;;2.57;;
80293;SDS011;69594;43.516;1.498;2023-08-01T07:29:12;6.83;;;2.50;;
80293;SDS011;69594;43.516;1.498;2023-08-01T07:31:40;6.10;;;3.28;;
80293;SDS011;69594;43.516;1.498;2023-08-01T07:34:06;5.33;;;2.87;;
80293;SDS011;69594;43.516;1.498;2023-08-01T07:36:31;6.07;;;3.20;;
80293;SDS011;69594;43.516;1.498;2023-08-01T07:38:57;4.18;;;2.65;;
80293;SDS011;69594;43.516;1.498;2023-08-01T07:41:22;5.30;;;2.70;;
80293;SDS011;69594;43.516;1.498;2023-08-01T07:43:47;5.97;;;2.70;;
80293;SDS011;69594;43.516;1.498;2023-08-01T07:46:13;6.32;;;3.67;;
80293;SDS011;69594;43.516;1.498;2023-08-01T07:48:39;6.50;;;2.77;;
80293;SDS011;69594;43.516;1.498;2023-08-01T07:51:04;6.30;;;3.00;;
80293;SDS011;69594;43.516;1.498;2023-08-01T07:53:30;4.82;;;2.50;;
80293;SDS011;69594;43.516;1.498;2023-08-01T07:55:56;5.83;;;2.87;;
80293;SDS011;69594;43.516;1.498;2023-08-01T07:58:21;6.00;;;2.97;;
80293;SDS011;69594;43.516;1.498;2023-08-01T08:00:46;4.83;;;2.77;;
80293;SDS011;69594;43.516;1.498;2023-08-01T08:03:12;8.43;;;3.20;;
80293;SDS011;69594;43.516;1.498;2023-08-01T08:05:37;6.20;;;2.70;;
80293;SDS011;69594;43.516;1.498;2023-08-01T08:08:03;7.18;;;3.10;;
80293;SDS011;69594;43.516;1.498;2023-08-01T08:10:29;6.68;;;3.13;;
80293;SDS011;69594;43.516;1.498;2023-08-01T08:12:54;6.23;;;2.73;;
80293;SDS011;69594;43.516;1.498;2023-08-01T08:15:19;6.23;;;2.87;;
80293;SDS011;69594;43.516;1.498;2023-08-01T08:17:45;6.57;;;3.37;;
80293;SDS011;69594;43.516;1.498;2023-08-01T08:20:10;5.30;;;2.90;;
80293;SDS011;69594;43.516;1.498;2023-08-01T08:22:35;6.20;;;2.83;;
80293;SDS011;69594;43.516;1.498;2023-08-01T08:25:00;7.80;;;3.30;;
80293;SDS011;69594;43.516;1.498;2023-08-01T08:27:26;5.80;;;3.00;;
80293;SDS011;69594;43.516;1.498;2023-08-01T08:29:51;6.07;;;2.90;;
80293;SDS011;69594;43.516;1.498;2023-08-01T08:32:16;5.97;;;3.20;;
80293;SDS011;69594;43.516;1.498;2023-08-01T08:34:42;4.57;;;2.57;;
80293;SDS011;69594;43.516;1.498;2023-08-01T08:37:07;5.10;;;3.13;;
80293;SDS011;69594;43.516;1.498;2023-08-01T08:39:32;7.63;;;3.33;;
80293;SDS011;69594;43.516;1.498;2023-08-01T08:41:58;4.83;;;2.80;;
80293;SDS011;69594;43.516;1.498;2023-08-01T08:44:24;4.93;;;2.65;;
80293;SDS011;69594;43.516;1.498;2023-08-01T08:46:53;6.60;;;2.60;;
80293;SDS011;69594;43.516;1.498;2023-08-01T08:49:19;5.70;;;2.60;;
80293;SDS011;69594;43.516;1.498;2023-08-01T08:51:45;5.82;;;2.70;;
80293;SDS011;69594;43.516;1.498;2023-08-01T08:54:11;5.93;;;2.50;;
80293;SDS011;69594;43.516;1.498;2023-08-01T08:56:36;8.55;;;3.00;;
80293;SDS011;69594;43.516;1.498;2023-08-01T08:59:03;4.50;;;2.50;;
80293;SDS011;69594;43.516;1.498;2023-08-01T09:01:29;4.80;;;2.57;;
80293;SDS011;69594;43.516;1.498;2023-08-01T09:03:56;5.05;;;2.35;;
80293;SDS011;69594;43.516;1.498;2023-08-01T09:06:27;5.88;;;2.88;;
80293;SDS011;69594;43.516;1.498;2023-08-01T09:11:24;4.63;;;2.75;;
80293;SDS011;69594;43.516;1.498;2023-08-01T09:13:50;4.80;;;2.40;;
80293;SDS011;69594;43.516;1.498;2023-08-01T09:16:15;4.80;;;2.40;;
80293;SDS011;69594;43.516;1.498;2023-08-01T09:18:58;5.47;;;2.70;;
80293;SDS011;69594;43.516;1.498;2023-08-01T09:21:24;3.67;;;2.15;;
80293;SDS011;69594;43.516;1.498;2023-08-01T09:23:49;4.80;;;2.13;;
80293;SDS011;69594;43.516;1.498;2023-08-01T09:26:15;7.10;;;2.77;;
80293;SDS011;69594;43.516;1.498;2023-08-01T09:28:41;6.05;;;2.80;;
80293;SDS011;69594;43.516;1.498;2023-08-01T09:31:07;5.23;;;2.40;;
80293;SDS011;69594;43.516;1.498;2023-08-01T09:33:41;5.63;;;2.17;;
80293;SDS011;69594;43.516;1.498;2023-08-01T09:36:07;6.25;;;2.20;;
80293;SDS011;69594;43.516;1.498;2023-08-01T09:38:36;5.28;;;2.28;;
80293;SDS011;69594;43.516;1.498;2023-08-01T09:41:02;3.30;;;1.90;;
80293;SDS011;69594;43.516;1.498;2023-08-01T09:43:33;6.57;;;2.10;;
80293;SDS011;69594;43.516;1.498;2023-08-01T09:46:00;5.25;;;2.45;;
80293;SDS011;69594;43.516;1.498;2023-08-01T09:48:26;3.63;;;2.00;;
80293;SDS011;69594;43.516;1.498;2023-08-01T09:50:51;5.60;;;2.30;;
80293;SDS011;69594;43.516;1.498;2023-08-01T09:53:18;4.82;;;2.00;;
80293;SDS011;69594;43.516;1.498;2023-08-01T09:55:43;5.10;;;2.40;;
80293;SDS011;69594;43.516;1.498;2023-08-01T09:58:11;4.78;;;2.15;;
80293;SDS011;69594;43.516;1.498;2023-08-01T10:00:38;4.03;;;1.80;;
80293;SDS011;69594;43.516;1.498;2023-08-01T10:03:03;3.85;;;2.05;;
80293;SDS011;69594;43.516;1.498;2023-08-01T10:05:30;2.77;;;1.83;;
80293;SDS011;69594;43.516;1.498;2023-08-01T10:07:58;3.60;;;1.95;;
80293;SDS011;69594;43.516;1.498;2023-08-01T10:10:24;5.72;;;2.22;;
80293;SDS011;69594;43.516;1.498;2023-08-01T10:12:50;4.05;;;1.88;;
80293;SDS011;69594;43.516;1.498;2023-08-01T10:15:15;3.10;;;1.70;;
80293;SDS011;69594;43.516;1.498;2023-08-01T10:17:41;3.77;;;1.60;;
80293;SDS011;69594;43.516;1.498;2023-08-01T10:20:06;2.70;;;1.63;;
80293;SDS011;69594;43.516;1.498;2023-08-01T10:22:32;3.10;;;1.48;;
80293;SDS011;69594;43.516;1.498;2023-08-01T10:24:58;4.05;;;1.65;;
80293;SDS011;69594;43.516;1.498;2023-08-01T10:27:23;2.97;;;1.17;;
80293;SDS011;69594;43.516;1.498;2023-08-01T10:29:58;2.23;;;1.43;;
80293;SDS011;69594;43.516;1.498;2023-08-01T10:32:29;2.55;;;1.25;;
80293;SDS011;69594;43.516;1.498;2023-08-01T10:34:54;1.95;;;1.13;;
80293;SDS011;69594;43.516;1.498;2023-08-01T10:37:19;2.70;;;1.23;;
80293;SDS011;69594;43.516;1.498;2023-08-01T10:39:45;5.60;;;1.53;;
80293;SDS011;69594;43.516;1.498;2023-08-01T10:42:20;2.50;;;1.60;;
80293;SDS011;69594;43.516;1.498;2023-08-01T10:44:46;2.60;;;1.60;;
80293;SDS011;69594;43.516;1.498;2023-08-01T10:47:11;2.70;;;1.23;;
80293;SDS011;69594;43.516;1.498;2023-08-01T10:49:43;4.97;;;1.40;;
80293;SDS011;69594;43.516;1.498;2023-08-01T10:52:19;2.80;;;1.23;;
80293;SDS011;69594;43.516;1.498;2023-08-01T10:54:45;3.00;;;1.45;;
80293;SDS011;69594;43.516;1.498;2023-08-01T10:57:19;2.85;;;1.52;;
80293;SDS011;69594;43.516;1.498;2023-08-01T10:59:44;3.57;;;1.73;;
80293;SDS011;69594;43.516;1.498;2023-08-01T11:02:10;2.60;;;1.40;;
80293;SDS011;69594;43.516;1.498;2023-08-01T11:04:35;2.60;;;1.20;;
80293;SDS011;69594;43.516;1.498;2023-08-01T11:07:01;2.60;;;1.40;;
80293;SDS011;69594;43.516;1.498;2023-08-01T11:09:26;3.47;;;1.10;;
80293;SDS011;69594;43.516;1.498;2023-08-01T11:11:56;1.70;;;1.00;;
80293;SDS011;69594;43.516;1.498;2023-08-01T11:14:22;2.88;;;1.00;;
80293;SDS011;69594;43.516;1.498;2023-08-01T11:16:47;4.65;;;1.10;;
80293;SDS011;69594;43.516;1.498;2023-08-01T11:19:20;1.70;;;1.20;;
80293;SDS011;69594;43.516;1.498;2023-08-01T11:21:46;1.20;;;0.90;;
80293;SDS011;69594;43.516;1.498;2023-08-01T11:24:11;3.10;;;1.10;;
80293;SDS011;69594;43.516;1.498;2023-08-01T11:26:40;1.93;;;1.00;;
80293;SDS011;69594;43.516;1.498;2023-08-01T11:29:05;2.43;;;1.00;;
80293;SDS011;69594;43.516;1.498;2023-08-01T11:31:30;2.13;;;1.40;;
80293;SDS011;69594;43.516;1.498;2023-08-01T11:33:59;2.33;;;1.00;;
80293;SDS011;69594;43.516;1.498;2023-08-01T11:36:25;2.20;;;1.10;;
80293;SDS011;69594;43.516;1.498;2023-08-01T11:38:51;6.20;;;1.45;;
80293;SDS011;69594;43.516;1.498;2023-08-01T11:41:16;2.33;;;1.20;;
80293;SDS011;69594;43.516;1.498;2023-08-01T11:43:42;3.00;;;1.20;;
80293;SDS011;69594;43.516;1.498;2023-08-01T11:46:07;7.63;;;1.50;;
80293;SDS011;69594;43.516;1.498;2023-08-01T11:48:33;3.53;;;1.10;;
80293;SDS011;69594;43.516;1.498;2023-08-01T11:50:59;3.00;;;1.27;;
80293;SDS011;69594;43.516;1.498;2023-08-01T11:53:24;2.42;;;1.30;;
80293;SDS011;69594;43.516;1.498;2023-08-01T11:55:50;1.90;;;1.20;;
80293;SDS011;69594;43.516;1.498;2023-08-01T12:01:05;3.25;;;1.30;;
80293;SDS011;69594;43.516;1.498;2023-08-01T12:03:31;4.00;;;1.43;;
80293;SDS011;69594;43.516;1.498;2023-08-01T12:06:04;2.60;;;1.40;;
80293;SDS011;69594;43.516;1.498;2023-08-01T12:08:31;3.40;;;1.70;;
80293;SDS011;69594;43.516;1.498;2023-08-01T12:10:57;3.22;;;1.42;;
80293;SDS011;69594;43.516;1.498;2023-08-01T12:13:23;5.17;;;1.33;;
80293;SDS011;69594;43.516;1.498;2023-08-01T12:15:49;2.45;;;1.20;;
80293;SDS011;69594;43.516;1.498;2023-08-01T12:18:24;2.20;;;1.47;;
80293;SDS011;69594;43.516;1.498;2023-08-01T12:20:50;1.83;;;1.20;;
80293;SDS011;69594;43.516;1.498;2023-08-01T12:23:15;4.43;;;1.20;;
80293;SDS011;69594;43.516;1.498;2023-08-01T12:25:40;2.93;;;1.30;;
80293;SDS011;69594;43.516;1.498;2023-08-01T12:28:06;7.70;;;1.43;;
80293;SDS011;69594;43.516;1.498;2023-08-01T12:30:31;2.23;;;1.30;;
80293;SDS011;69594;43.516;1.498;2023-08-01T12:32:56;2.87;;;1.40;;
80293;SDS011;69594;43.516;1.498;2023-08-01T12:35:21;2.23;;;1.17;;
80293;SDS011;69594;43.516;1.498;2023-08-01T12:37:47;2.23;;;1.20;;
80293;SDS011;69594;43.516;1.498;2023-08-01T12:40:12;1.50;;;1.00;;
80293;SDS011;69594;43.516;1.498;2023-08-01T12:42:38;2.03;;;1.13;;
80293;SDS011;69594;43.516;1.498;2023-08-01T12:45:03;1.87;;;1.07;;
80293;SDS011;69594;43.516;1.498;2023-08-01T12:47:28;2.53;;;1.13;;
80293;SDS011;69594;43.516;1.498;2023-08-01T12:49:54;2.13;;;1.10;;
80293;SDS011;69594;43.516;1.498;2023-08-01T12:52:23;1.13;;;0.63;;
80293;SDS011;69594;43.516;1.498;2023-08-01T12:54:49;0.93;;;0.75;;
80293;SDS011;69594;43.516;1.498;2023-08-01T12:57:14;1.00;;;0.90;;
80293;SDS011;69594;43.516;1.498;2023-08-01T12:59:40;1.10;;;0.80;;
80293;SDS011;69594;43.516;1.498;2023-08-01T13:02:05;1.57;;;0.80;;
80293;SDS011;69594;43.516;1.498;2023-08-01T13:04:33;2.47;;;0.90;;
80293;SDS011;69594;43.516;1.498;2023-08-01T13:06:58;1.40;;;0.80;;
80293;SDS011;69594;43.516;1.498;2023-08-01T13:09:24;3.30;;;1.00;;
80293;SDS011;69594;43.516;1.498;2023-08-01T13:11:49;1.10;;;0.80;;
80293;SDS011;69594;43.516;1.498;2023-08-01T13:14:14;1.27;;;0.90;;
80293;SDS011;69594;43.516;1.498;2023-08-01T13:16:40;3.83;;;1.03;;
80293;SDS011;69594;43.516;1.498;2023-08-01T13:19:05;1.43;;;0.87;;
80293;SDS011;69594;43.516;1.498;2023-08-01T13:21:31;1.90;;;0.77;;
80293;SDS011;69594;43.516;1.498;2023-08-01T13:23:57;1.45;;;0.90;;
80293;SDS011;69594;43.516;1.498;2023-08-01T13:26:23;2.13;;;1.20;;
80293;SDS011;69594;43.516;1.498;2023-08-01T13:28:48;1.87;;;1.07;;
80293;SDS011;69594;43.516;1.498;2023-08-01T13:31:13;0.77;;;0.77;;
80293;SDS011;69594;43.516;1.498;2023-08-01T13:33:38;1.20;;;0.80;;
80293;SDS011;69594;43.516;1.498;2023-08-01T13:36:04;1.42;;;1.08;;
80293;SDS011;69594;43.516;1.498;2023-08-01T13:38:29;3.03;;;0.97;;
80293;SDS011;69594;43.516;1.498;2023-08-01T13:40:58;1.80;;;1.00;;
80293;SDS011;69594;43.516;1.498;2023-08-01T13:43:23;2.75;;;1.00;;
80293;SDS011;69594;43.516;1.498;2023-08-01T13:45:48;1.70;;;0.80;;
80293;SDS011;69594;43.516;1.498;2023-08-01T13:48:14;1.03;;;0.80;;
80293;SDS011;69594;43.516;1.498;2023-08-01T13:50:39;1.53;;;0.67;;
80293;SDS011;69594;43.516;1.498;2023-08-01T13:53:04;0.77;;;0.60;;
80293;SDS011;69594;43.516;1.498;2023-08-01T13:55:32;1.63;;;0.60;;
80293;SDS011;69594;43.516;1.498;2023-08-01T13:57:57;1.00;;;0.70;;
80293;SDS011;69594;43.516;1.498;2023-08-01T14:00:22;1.57;;;0.80;;
80293;SDS011;69594;43.516;1.498;2023-08-01T14:02:49;1.33;;;0.80;;
80293;SDS011;69594;43.516;1.498;2023-08-01T14:05:14;1.80;;;0.80;;
80293;SDS011;69594;43.516;1.498;2023-08-01T14:07:39;1.80;;;0.63;;
80293;SDS011;69594;43.516;1.498;2023-08-01T14:10:05;1.87;;;0.90;;
80293;SDS011;69594;43.516;1.498;2023-08-01T14:12:31;1.10;;;0.90;;
80293;SDS011;69594;43.516;1.498;2023-08-01T14:14:56;2.47;;;0.80;;
80293;SDS011;69594;43.516;1.498;2023-08-01T14:17:21;1.00;;;0.60;;
80293;SDS011;69594;43.516;1.498;2023-08-01T14:19:47;1.00;;;0.70;;
80293;SDS011;69594;43.516;1.498;2023-08-01T14:22:12;0.70;;;0.70;;
80293;SDS011;69594;43.516;1.498;2023-08-01T14:24:37;2.40;;;0.87;;
80293;SDS011;69594;43.516;1.498;2023-08-01T14:27:02;2.47;;;1.00;;
80293;SDS011;69594;43.516;1.498;2023-08-01T14:29:28;1.73;;;1.10;;
80293;SDS011;69594;43.516;1.498;2023-08-01T14:31:54;2.67;;;1.23;;
80293;SDS011;69594;43.516;1.498;2023-08-01T14:34:19;1.87;;;1.20;;
80293;SDS011;69594;43.516;1.498;2023-08-01T14:36:44;1.70;;;1.10;;
80293;SDS011;69594;43.516;1.498;2023-08-01T14:39:09;1.80;;;1.10;;
80293;SDS011;69594;43.516;1.498;2023-08-01T14:41:35;1.93;;;0.93;;
80293;SDS011;69594;43.516;1.498;2023-08-01T14:44:00;1.47;;;1.00;;